createdAt,value
2023-04-29T00:01:30.093Z,0.70
2023-04-29T00:03:58.823Z,0.80
2023-04-29T00:06:28.582Z,0.80
2023-04-29T00:08:58.600Z,0.97
2023-04-29T00:11:27.101Z,1.00
2023-04-29T00:13:55.572Z,0.97
2023-04-29T00:16:24.076Z,0.90
2023-04-29T00:18:52.711Z,0.73
2023-04-29T00:21:21.535Z,0.73
2023-04-29T00:23:49.964Z,0.77
2023-04-29T00:26:19.935Z,0.90
2023-04-29T00:28:48.333Z,0.80
2023-04-29T00:31:17.162Z,0.90
2023-04-29T00:33:46.025Z,0.70
2023-04-29T00:36:14.550Z,1.07
2023-04-29T00:38:43.250Z,0.80
2023-04-29T00:41:12.016Z,0.70
2023-04-29T00:43:42.357Z,0.80
2023-04-29T00:46:11.666Z,0.70
2023-04-29T00:48:41.574Z,0.80
2023-04-29T00:51:11.034Z,0.90
2023-04-29T00:53:40.033Z,1.00
2023-04-29T00:56:08.917Z,0.90
2023-04-29T00:58:39.193Z,1.20
2023-04-29T01:01:11.177Z,0.87
2023-04-29T01:03:42.069Z,1.00
2023-04-29T01:06:12.512Z,1.00
2023-04-29T01:08:45.627Z,1.00
2023-04-29T01:11:15.037Z,0.90
2023-04-29T01:13:45.790Z,0.90
2023-04-29T01:16:29.334Z,1.03
2023-04-29T01:19:00.098Z,0.90
2023-04-29T01:21:31.944Z,1.00
2023-04-29T01:24:02.486Z,0.90
2023-04-29T01:26:33.676Z,1.23
2023-04-29T01:29:10.598Z,1.10
2023-04-29T01:31:43.842Z,1.20
2023-04-29T01:34:13.694Z,1.03
2023-04-29T01:36:48.025Z,1.00
2023-04-29T01:39:24.974Z,0.90
2023-04-29T01:41:55.764Z,1.10
2023-04-29T01:44:25.650Z,1.10
2023-04-29T01:46:55.041Z,1.30
2023-04-29T01:49:23.810Z,1.00
2023-04-29T01:51:52.161Z,1.07
2023-04-29T01:54:22.426Z,1.37
2023-04-29T01:56:51.995Z,1.10
2023-04-29T01:59:20.927Z,0.83
2023-04-29T02:01:51.032Z,0.97
2023-04-29T02:04:19.423Z,1.00
2023-04-29T02:06:47.897Z,0.90
2023-04-29T02:09:16.868Z,1.13
2023-04-29T02:11:46.803Z,1.23
2023-04-29T02:14:15.721Z,1.00
2023-04-29T02:16:46.578Z,1.10
2023-04-29T02:19:15.087Z,1.20
2023-04-29T02:21:44.061Z,1.20
2023-04-29T02:24:12.684Z,1.20
2023-04-29T02:26:41.448Z,1.30
2023-04-29T02:29:11.247Z,1.27
2023-04-29T02:31:39.917Z,1.10
2023-04-29T02:34:08.594Z,1.40
2023-04-29T02:36:37.210Z,1.30
2023-04-29T02:39:05.986Z,1.33
2023-04-29T02:41:35.008Z,1.30
2023-04-29T02:44:04.092Z,1.40
2023-04-29T02:46:36.060Z,1.93
2023-04-29T02:49:05.422Z,1.27
2023-04-29T02:51:34.330Z,1.70
2023-04-29T02:54:02.937Z,1.50
2023-04-29T02:56:31.617Z,1.63
2023-04-29T02:59:00.009Z,1.40
2023-04-29T03:01:29.123Z,1.27
2023-04-29T03:03:59.566Z,1.60
2023-04-29T03:06:28.236Z,1.40
2023-04-29T03:08:57.023Z,1.60
2023-04-29T03:11:25.864Z,1.60
2023-04-29T03:13:54.366Z,1.63
2023-04-29T03:16:23.368Z,1.60
2023-04-29T03:18:51.977Z,1.20
2023-04-29T03:21:21.929Z,1.47
2023-04-29T03:23:50.488Z,1.87
2023-04-29T03:26:20.121Z,1.60
2023-04-29T03:28:48.688Z,1.60
2023-04-29T03:31:17.264Z,1.53
2023-04-29T03:33:45.817Z,1.50
2023-04-29T03:36:15.433Z,1.57
2023-04-29T03:38:45.400Z,1.50
2023-04-29T03:41:13.918Z,1.77
2023-04-29T03:43:44.340Z,1.40
2023-04-29T03:46:12.905Z,1.70
2023-04-29T03:48:41.334Z,1.70
2023-04-29T03:51:10.173Z,1.90
2023-04-29T03:53:39.915Z,1.37
2023-04-29T03:56:09.942Z,1.60
2023-04-29T03:58:38.381Z,1.60
2023-04-29T04:01:06.920Z,3.17
2023-04-29T04:03:36.243Z,2.13
2023-04-29T04:06:05.514Z,1.60
2023-04-29T04:08:33.892Z,1.60
2023-04-29T04:11:04.698Z,1.60
2023-04-29T04:13:35.331Z,1.90
2023-04-29T04:16:03.944Z,1.73
2023-04-29T04:18:32.423Z,1.70
2023-04-29T04:21:06.943Z,2.00
2023-04-29T04:23:35.496Z,2.30
2023-04-29T04:26:03.950Z,2.00
2023-04-29T04:28:34.153Z,1.83
2023-04-29T04:31:02.602Z,1.90
2023-04-29T04:33:31.056Z,1.53
2023-04-29T04:35:59.770Z,2.10
2023-04-29T04:38:28.615Z,1.93
2023-04-29T04:40:57.527Z,2.10
2023-04-29T04:43:26.347Z,1.83
2023-04-29T04:45:56.704Z,1.93
2023-04-29T04:48:24.956Z,2.03
2023-04-29T04:50:53.730Z,1.67
2023-04-29T04:53:23.570Z,1.90
2023-04-29T04:55:51.925Z,2.10
2023-04-29T04:58:20.355Z,1.93
2023-04-29T05:00:48.836Z,1.87
2023-04-29T05:03:20.475Z,2.37
2023-04-29T05:05:54.968Z,2.20
2023-04-29T05:08:23.365Z,1.87
2023-04-29T05:10:51.988Z,2.20
2023-04-29T05:13:20.676Z,2.03
2023-04-29T05:15:49.851Z,2.20
2023-04-29T05:18:20.089Z,2.47
2023-04-29T05:20:48.682Z,2.30
2023-04-29T05:23:17.185Z,2.83
2023-04-29T05:25:45.658Z,2.50
2023-04-29T05:28:14.069Z,2.70
2023-04-29T05:30:43.906Z,2.53
2023-04-29T05:33:12.304Z,2.40
2023-04-29T05:35:42.307Z,2.80
2023-04-29T05:38:10.943Z,2.50
2023-04-29T05:40:39.417Z,2.53
2023-04-29T05:43:07.834Z,2.40
2023-04-29T05:45:36.242Z,2.00
2023-04-29T05:48:04.919Z,2.13
2023-04-29T05:50:33.404Z,2.30
2023-04-29T05:53:03.384Z,2.27
2023-04-29T05:55:31.751Z,2.33
2023-04-29T05:58:00.242Z,2.20
2023-04-29T06:00:28.588Z,2.80
2023-04-29T06:02:59.110Z,2.47
2023-04-29T06:05:28.911Z,2.27
2023-04-29T06:07:57.593Z,2.57
2023-04-29T06:10:27.236Z,2.20
2023-04-29T06:12:55.874Z,2.20
2023-04-29T06:15:24.248Z,2.70
2023-04-29T06:17:53.640Z,2.67
2023-04-29T06:20:22.154Z,2.47
2023-04-29T06:22:51.376Z,2.83
2023-04-29T06:25:22.212Z,3.20
2023-04-29T06:27:52.183Z,3.23
2023-04-29T06:30:20.929Z,3.33
2023-04-29T06:32:49.390Z,4.27
2023-04-29T06:35:17.935Z,3.50
2023-04-29T06:37:46.675Z,3.77
2023-04-29T06:40:15.158Z,4.20
2023-04-29T06:42:44.193Z,4.17
2023-04-29T06:45:14.041Z,4.50
2023-04-29T06:47:42.694Z,3.80
2023-04-29T06:50:11.662Z,3.67
2023-04-29T06:52:39.967Z,3.77
2023-04-29T06:55:08.721Z,4.10
2023-04-29T06:57:37.624Z,3.97
2023-04-29T07:00:06.503Z,4.03
2023-04-29T07:02:38.954Z,4.47
2023-04-29T07:05:08.199Z,3.97
2023-04-29T07:07:36.528Z,4.97
2023-04-29T07:10:05.283Z,4.20
2023-04-29T07:12:33.822Z,3.83
2023-04-29T07:15:02.789Z,3.93
2023-04-29T07:17:32.346Z,4.00
2023-04-29T07:20:03.018Z,3.47
2023-04-29T07:22:31.492Z,3.70
2023-04-29T07:24:59.931Z,3.87
2023-04-29T07:27:28.596Z,3.20
2023-04-29T07:29:59.101Z,3.77
2023-04-29T07:32:27.698Z,3.77
2023-04-29T07:34:56.057Z,2.90
2023-04-29T07:37:25.851Z,3.30
2023-04-29T07:39:54.274Z,3.00
2023-04-29T07:42:22.576Z,3.63
2023-04-29T07:44:51.372Z,3.83
2023-04-29T07:47:20.300Z,3.10
2023-04-29T07:49:49.344Z,3.20
2023-04-29T07:52:17.982Z,3.20
2023-04-29T07:54:47.763Z,2.97
2023-04-29T07:57:16.292Z,3.00
2023-04-29T07:59:44.960Z,2.90
2023-04-29T08:02:13.912Z,2.60
2023-04-29T08:04:43.192Z,3.03
2023-04-29T08:07:11.770Z,3.00
2023-04-29T08:09:40.472Z,3.70
2023-04-29T08:12:10.668Z,2.53
2023-04-29T08:14:39.467Z,2.40
2023-04-29T08:17:08.535Z,3.00
2023-04-29T08:19:37.001Z,2.87
2023-04-29T08:22:05.691Z,2.90
2023-04-29T08:24:35.223Z,2.60
2023-04-29T08:27:03.646Z,2.43
2023-04-29T08:29:34.700Z,2.50
2023-04-29T08:32:03.169Z,2.50
2023-04-29T08:34:33.671Z,2.70
2023-04-29T08:37:02.448Z,2.53
2023-04-29T08:39:31.040Z,2.50
2023-04-29T08:42:00.222Z,2.43
2023-04-29T08:44:30.347Z,2.27
2023-04-29T08:47:01.648Z,2.23
2023-04-29T08:49:30.472Z,2.10
2023-04-29T08:51:59.024Z,2.17
2023-04-29T08:54:28.758Z,1.97
2023-04-29T08:56:58.229Z,1.93
2023-04-29T08:59:26.967Z,1.80
2023-04-29T09:01:57.225Z,2.10
2023-04-29T09:04:32.107Z,1.93
2023-04-29T09:07:01.300Z,1.80
2023-04-29T09:09:33.044Z,1.87
2023-04-29T09:12:05.480Z,1.60
2023-04-29T09:14:34.755Z,1.73
2023-04-29T09:17:03.125Z,2.13
2023-04-29T09:19:33.852Z,1.77
2023-04-29T09:22:02.581Z,2.20
2023-04-29T09:24:31.920Z,1.80
2023-04-29T09:27:00.690Z,1.80
2023-04-29T09:29:29.593Z,1.60
2023-04-29T09:31:59.039Z,1.80
2023-04-29T09:34:37.340Z,1.80
2023-04-29T09:37:05.752Z,1.60
2023-04-29T09:39:41.029Z,1.40
2023-04-29T09:42:09.752Z,1.73
2023-04-29T09:44:42.931Z,1.90
2023-04-29T09:47:13.369Z,1.67
2023-04-29T09:49:45.392Z,1.47
2023-04-29T09:52:14.618Z,1.60
2023-04-29T09:54:43.453Z,1.90
2023-04-29T09:57:12.423Z,1.20
2023-04-29T09:59:41.580Z,1.70
2023-04-29T10:02:15.769Z,1.80
2023-04-29T10:04:47.370Z,1.50
2023-04-29T10:07:17.455Z,1.40
2023-04-29T10:09:47.877Z,1.50
2023-04-29T10:12:18.260Z,1.83
2023-04-29T10:14:51.040Z,1.77
2023-04-29T10:17:23.263Z,2.17
2023-04-29T10:19:59.981Z,2.23
2023-04-29T10:22:31.636Z,2.40
2023-04-29T10:25:00.657Z,2.57
2023-04-29T10:27:29.683Z,2.27
2023-04-29T10:29:58.947Z,2.20
2023-04-29T10:32:36.982Z,2.20
2023-04-29T10:35:14.497Z,2.20
2023-04-29T10:37:43.325Z,2.20
2023-04-29T10:40:16.239Z,2.53
2023-04-29T10:42:45.943Z,2.50
2023-04-29T10:45:28.716Z,2.40
2023-04-29T10:48:13.411Z,2.13
2023-04-29T10:51:01.303Z,2.00
2023-04-29T10:53:32.116Z,1.97
2023-04-29T10:56:01.622Z,1.67
2023-04-29T10:58:46.248Z,1.67
2023-04-29T11:01:15.417Z,2.33
2023-04-29T11:03:51.037Z,2.00
2023-04-29T11:06:19.610Z,1.90
2023-04-29T11:08:50.320Z,2.10
2023-04-29T11:11:19.549Z,1.87
2023-04-29T11:13:49.131Z,1.60
2023-04-29T11:16:18.604Z,1.90
2023-04-29T11:19:03.638Z,1.90
2023-04-29T11:21:33.593Z,1.60
2023-04-29T11:24:04.862Z,1.47
2023-04-29T11:26:36.548Z,1.50
2023-04-29T11:29:05.694Z,1.53
2023-04-29T11:31:36.101Z,1.73
2023-04-29T11:34:10.853Z,1.33
2023-04-29T11:36:39.195Z,1.40
2023-04-29T11:39:10.369Z,1.60
2023-04-29T11:41:40.068Z,1.40
2023-04-29T11:44:10.126Z,1.73
2023-04-29T11:46:40.537Z,1.30
2023-04-29T11:49:09.113Z,1.50
2023-04-29T11:51:37.832Z,1.20
2023-04-29T11:54:08.241Z,1.40
2023-04-29T11:56:39.213Z,1.50
2023-04-29T11:59:08.325Z,1.33
2023-04-29T12:01:38.247Z,1.20
2023-04-29T12:04:07.467Z,1.40
2023-04-29T12:06:36.142Z,1.10
2023-04-29T12:09:05.347Z,1.20
2023-04-29T12:11:33.760Z,1.57
2023-04-29T12:14:06.251Z,1.30
2023-04-29T12:16:35.877Z,1.40
2023-04-29T12:19:04.438Z,1.10
2023-04-29T12:21:33.196Z,1.17
2023-04-29T12:24:02.192Z,0.93
2023-04-29T12:26:31.454Z,1.40
2023-04-29T12:29:00.251Z,1.33
2023-04-29T12:31:37.118Z,1.40
2023-04-29T12:34:09.150Z,1.17
2023-04-29T12:36:39.952Z,1.43
2023-04-29T12:39:11.158Z,1.13
2023-04-29T12:41:40.579Z,1.20
2023-04-29T12:44:10.916Z,1.20
2023-04-29T12:46:41.545Z,1.20
2023-04-29T12:49:10.670Z,1.40
2023-04-29T12:51:39.014Z,1.20
2023-04-29T12:54:08.812Z,1.10
2023-04-29T12:56:37.552Z,1.30
2023-04-29T12:59:10.066Z,1.27
2023-04-29T13:01:41.664Z,1.50
2023-04-29T13:04:11.717Z,1.20
2023-04-29T13:06:41.920Z,1.20
2023-04-29T13:09:17.870Z,1.10
2023-04-29T13:11:48.508Z,1.40
2023-04-29T13:14:17.738Z,1.27
2023-04-29T13:16:48.205Z,1.20
2023-04-29T13:19:30.026Z,0.90
2023-04-29T13:22:05.635Z,1.20
2023-04-29T13:24:35.943Z,1.10
2023-04-29T13:27:07.221Z,1.20
2023-04-29T13:29:36.040Z,1.23
2023-04-29T13:32:08.331Z,1.20
2023-04-29T13:34:36.898Z,1.20
2023-04-29T13:37:06.544Z,1.23
2023-04-29T13:39:38.097Z,1.23
2023-04-29T13:42:08.852Z,1.00
2023-04-29T13:44:51.774Z,1.10
2023-04-29T13:47:31.190Z,1.00
2023-04-29T13:55:58.869Z,1.07
2023-04-29T13:58:31.265Z,1.23
2023-04-29T14:01:05.268Z,1.00
2023-04-29T14:03:34.755Z,0.90
2023-04-29T14:06:07.316Z,0.90
2023-04-29T14:08:35.907Z,1.10
2023-04-29T14:11:04.737Z,1.00
2023-04-29T14:13:34.201Z,1.10
2023-04-29T14:16:06.060Z,1.00
2023-04-29T14:18:37.048Z,0.93
2023-04-29T14:21:05.690Z,1.03
2023-04-29T14:23:34.502Z,1.00
2023-04-29T14:26:22.526Z,1.20
2023-04-29T14:28:57.359Z,1.00
2023-04-29T14:31:28.884Z,1.40
2023-04-29T14:33:59.941Z,1.37
2023-04-29T14:36:28.454Z,1.10
2023-04-29T14:38:57.142Z,1.00
2023-04-29T14:41:25.934Z,1.00
2023-04-29T14:43:54.661Z,1.30
2023-04-29T14:46:23.619Z,1.40
2023-04-29T14:48:52.170Z,1.10
2023-04-29T14:51:23.174Z,1.00
2023-04-29T14:53:53.015Z,1.30
2023-04-29T14:56:23.335Z,1.13
2023-04-29T14:58:51.846Z,1.00
2023-04-29T15:01:20.302Z,0.93
2023-04-29T15:03:49.059Z,1.10
2023-04-29T15:06:17.600Z,1.20
2023-04-29T15:08:47.984Z,1.13
2023-04-29T15:11:16.355Z,1.00
2023-04-29T15:13:44.812Z,1.50
2023-04-29T15:16:13.883Z,1.07
2023-04-29T15:18:45.666Z,1.10
2023-04-29T15:21:15.952Z,1.20
2023-04-29T15:23:44.659Z,1.10
2023-04-29T15:26:16.490Z,0.90
2023-04-29T15:28:46.190Z,1.27
2023-04-29T15:31:16.075Z,1.13
2023-04-29T15:33:45.138Z,1.10
2023-04-29T15:36:16.997Z,1.20
2023-04-29T15:38:45.389Z,0.93
2023-04-29T15:41:15.574Z,1.20
2023-04-29T15:43:44.113Z,1.20
2023-04-29T15:46:12.789Z,1.43
2023-04-29T15:48:41.348Z,1.20
2023-04-29T15:51:10.817Z,1.00
2023-04-29T15:53:39.214Z,1.30
2023-04-29T15:56:07.942Z,1.40
2023-04-29T15:58:38.031Z,1.13
2023-04-29T16:01:06.707Z,1.50
2023-04-29T16:03:35.239Z,1.50
2023-04-29T16:06:03.926Z,1.20
2023-04-29T16:08:32.990Z,1.30
2023-04-29T16:11:01.549Z,1.20
2023-04-29T16:13:29.846Z,1.57
2023-04-29T16:16:00.084Z,1.30
2023-04-29T16:18:29.000Z,1.30
2023-04-29T16:20:57.607Z,1.23
2023-04-29T16:23:26.179Z,1.20
2023-04-29T16:25:55.609Z,1.20
2023-04-29T16:28:24.412Z,1.50
2023-04-29T16:30:57.365Z,1.40
2023-04-29T16:33:35.873Z,1.30
2023-04-29T16:36:05.350Z,1.30
2023-04-29T16:38:38.105Z,1.37
2023-04-29T16:41:07.836Z,1.40
2023-04-29T16:43:36.887Z,1.33
2023-04-29T16:46:05.573Z,1.30
2023-04-29T16:48:36.826Z,1.30
2023-04-29T16:51:05.213Z,1.50
2023-04-29T16:53:34.033Z,1.20
2023-04-29T16:56:09.199Z,1.20
2023-04-29T16:58:42.581Z,1.60
2023-04-29T17:01:11.406Z,1.47
2023-04-29T17:03:43.372Z,1.50
2023-04-29T17:06:14.025Z,2.07
2023-04-29T17:08:43.167Z,1.90
2023-04-29T17:11:11.876Z,2.10
2023-04-29T17:13:40.239Z,1.80
2023-04-29T17:16:10.233Z,2.20
2023-04-29T17:18:39.136Z,2.20
2023-04-29T17:21:09.412Z,2.27
2023-04-29T17:23:39.046Z,1.97
2023-04-29T17:26:07.557Z,1.83
2023-04-29T17:28:49.774Z,1.63
2023-04-29T17:31:21.036Z,1.87
2023-04-29T17:33:55.857Z,2.00
2023-04-29T17:36:26.103Z,2.47
2023-04-29T17:38:55.140Z,2.20
2023-04-29T17:41:25.527Z,2.03
2023-04-29T17:43:54.264Z,2.40
2023-04-29T17:46:22.977Z,2.30
2023-04-29T17:48:52.404Z,3.63
2023-04-29T17:51:21.976Z,2.37
2023-04-29T17:53:51.704Z,2.50
2023-04-29T17:56:23.517Z,2.40
2023-04-29T17:58:52.390Z,2.30
2023-04-29T18:01:22.939Z,2.63
2023-04-29T18:03:52.130Z,3.10
2023-04-29T18:06:20.815Z,3.10
2023-04-29T18:08:49.429Z,2.50
2023-04-29T18:11:19.320Z,2.90
2023-04-29T18:13:48.478Z,3.20
2023-04-29T18:16:17.083Z,2.70
2023-04-29T18:18:46.578Z,3.33
2023-04-29T18:21:15.099Z,3.33
2023-04-29T18:23:54.262Z,4.03
2023-04-29T18:26:24.387Z,3.30
2023-04-29T18:28:53.273Z,3.10
2023-04-29T18:31:23.484Z,2.90
2023-04-29T18:33:51.909Z,3.67
2023-04-29T18:36:21.678Z,3.73
2023-04-29T18:38:50.040Z,3.37
2023-04-29T18:41:18.478Z,4.13
2023-04-29T18:46:47.262Z,3.37
2023-04-29T18:49:17.942Z,3.93
2023-04-29T18:51:46.991Z,4.03
2023-04-29T18:54:17.088Z,4.30
2023-04-29T18:56:47.737Z,3.90
2023-04-29T18:59:19.835Z,4.33
2023-04-29T19:01:50.513Z,3.93
2023-04-29T19:04:19.114Z,3.70
2023-04-29T19:06:47.657Z,3.63
2023-04-29T19:09:16.063Z,4.47
2023-04-29T19:11:44.274Z,4.17
2023-04-29T19:14:12.829Z,4.10
2023-04-29T19:16:41.413Z,4.20
2023-04-29T19:19:11.547Z,4.60
2023-04-29T19:21:40.047Z,3.77
2023-04-29T19:24:08.571Z,4.17
2023-04-29T19:26:39.462Z,4.13
2023-04-29T19:29:09.051Z,4.23
2023-04-29T19:31:37.963Z,3.40
2023-04-29T19:34:06.451Z,4.40
2023-04-29T19:36:37.815Z,3.80
2023-04-29T19:39:06.246Z,4.10
2023-04-29T19:41:35.244Z,3.73
2023-04-29T19:44:03.609Z,3.77
2023-04-29T19:46:32.325Z,4.40
2023-04-29T19:49:01.901Z,3.63
2023-04-29T19:51:30.967Z,3.77
2023-04-29T19:54:01.930Z,4.20
2023-04-29T19:56:30.290Z,3.70
2023-04-29T19:58:58.596Z,3.53
2023-04-29T20:01:27.057Z,3.20
2023-04-29T20:03:55.440Z,3.50
2023-04-29T20:06:23.718Z,3.60
2023-04-29T20:08:52.452Z,3.60
2023-04-29T20:11:23.930Z,3.27
2023-04-29T20:13:53.047Z,3.60
2023-04-29T20:16:23.380Z,3.80
2023-04-29T20:18:54.398Z,3.77
2023-04-29T20:21:22.708Z,3.27
2023-04-29T20:23:51.507Z,3.53
2023-04-29T20:26:20.118Z,4.00
2023-04-29T20:28:50.117Z,3.80
2023-04-29T20:31:18.616Z,4.00
2023-04-29T20:33:46.947Z,3.20
2023-04-29T20:36:15.539Z,3.57
2023-04-29T20:38:45.307Z,3.83
2023-04-29T20:41:14.057Z,3.43
2023-04-29T20:43:42.415Z,3.53
2023-04-29T20:46:14.307Z,3.60
2023-04-29T20:48:42.883Z,3.73
2023-04-29T20:51:13.089Z,3.50
2023-04-29T20:53:41.757Z,4.03
2023-04-29T20:56:10.698Z,3.53
2023-04-29T20:58:39.191Z,4.00
2023-04-29T21:01:08.088Z,3.57
2023-04-29T21:03:37.876Z,3.87
2023-04-29T21:06:06.607Z,3.50
2023-04-29T21:08:35.759Z,3.67
2023-04-29T21:11:05.342Z,4.03
2023-04-29T21:13:33.744Z,3.80
2023-04-29T21:16:02.393Z,3.77
2023-04-29T21:18:30.932Z,3.73
2023-04-29T21:21:01.072Z,3.87
2023-04-29T21:23:29.627Z,3.47
2023-04-29T21:25:58.281Z,3.67
2023-04-29T21:28:26.898Z,3.60
2023-04-29T21:30:55.683Z,3.80
2023-04-29T21:33:24.137Z,2.73
2023-04-29T21:35:52.925Z,3.60
2023-04-29T21:38:22.765Z,3.10
2023-04-29T21:40:51.478Z,3.20
2023-04-29T21:43:20.019Z,3.60
2023-04-29T21:45:48.615Z,3.50
2023-04-29T21:48:18.589Z,3.07
2023-04-29T21:50:47.688Z,4.00
2023-04-29T21:53:17.049Z,3.47
2023-04-29T21:55:47.968Z,3.70
2023-04-29T21:58:17.024Z,3.60
2023-04-29T22:00:58.295Z,3.00
2023-04-29T22:03:26.963Z,3.50
2023-04-29T22:05:55.418Z,3.57
2023-04-29T22:08:24.598Z,3.47
2023-04-29T22:10:54.672Z,4.03
2023-04-29T22:13:23.570Z,3.53
2023-04-29T22:15:52.538Z,3.30
2023-04-29T22:18:21.825Z,3.40
2023-04-29T22:20:50.138Z,3.43
2023-04-29T22:23:19.855Z,3.40
2023-04-29T22:25:48.471Z,3.50
2023-04-29T22:28:18.445Z,3.63
2023-04-29T22:30:47.315Z,4.10
2023-04-29T22:33:15.796Z,3.77
2023-04-29T22:35:44.348Z,4.00
2023-04-29T22:38:12.870Z,3.50
2023-04-29T22:40:41.201Z,4.00
2023-04-29T22:43:09.567Z,3.87
2023-04-29T22:45:39.384Z,3.93
2023-04-29T22:48:08.598Z,3.50
2023-04-29T22:50:36.903Z,3.87
2023-04-29T22:53:05.561Z,3.37
2023-04-29T22:55:33.950Z,3.90
2023-04-29T22:58:02.369Z,3.67
2023-04-29T23:00:30.853Z,3.30
2023-04-29T23:03:00.798Z,3.80
2023-04-29T23:05:29.360Z,3.70
2023-04-29T23:07:57.870Z,4.03
2023-04-29T23:10:26.361Z,3.10
2023-04-29T23:12:54.635Z,3.53
2023-04-29T23:15:22.927Z,3.60
2023-04-29T23:17:51.350Z,4.00
2023-04-29T23:20:21.145Z,3.57
2023-04-29T23:22:49.494Z,4.23
2023-04-29T23:25:17.903Z,3.90
2023-04-29T23:27:46.181Z,4.37
2023-04-29T23:30:14.559Z,3.97
2023-04-29T23:32:42.932Z,4.20
2023-04-29T23:35:12.432Z,3.57
2023-04-29T23:37:42.670Z,3.70
2023-04-29T23:40:11.504Z,3.50
2023-04-29T23:42:39.901Z,3.63
2023-04-29T23:45:09.059Z,3.87
2023-04-29T23:47:37.504Z,3.53
2023-04-29T23:50:06.684Z,4.13
2023-04-29T23:52:35.341Z,4.00
2023-04-29T23:55:05.428Z,3.70
2023-04-29T23:57:34.023Z,4.00
